createdAt,value
2018-08-30T00:01:54.765Z,20.01
2018-08-30T00:04:59.662Z,19.97
2018-08-30T00:08:04.702Z,19.93
2018-08-30T00:11:09.700Z,19.90
2018-08-30T00:14:14.618Z,19.94
2018-08-30T00:17:19.335Z,19.81
2018-08-30T00:20:24.240Z,19.71
2018-08-30T00:23:29.050Z,19.63
2018-08-30T00:26:33.840Z,19.48
2018-08-30T00:29:38.712Z,19.44
2018-08-30T00:32:43.591Z,19.33
2018-08-30T00:35:48.385Z,19.33
2018-08-30T00:38:53.237Z,19.32
2018-08-30T00:41:57.990Z,19.35
2018-08-30T00:45:02.931Z,19.30
2018-08-30T00:48:07.836Z,19.19
2018-08-30T00:51:12.726Z,19.40
2018-08-30T00:54:17.600Z,19.24
2018-08-30T00:57:22.398Z,19.20
2018-08-30T01:00:27.233Z,19.30
2018-08-30T01:03:32.065Z,19.32
2018-08-30T01:06:36.806Z,19.23
2018-08-30T01:09:41.762Z,19.13
2018-08-30T01:12:52.323Z,19.18
2018-08-30T01:15:57.126Z,19.17
2018-08-30T01:19:01.976Z,19.06
2018-08-30T01:22:06.848Z,19.10
2018-08-30T01:25:11.643Z,19.15
2018-08-30T01:28:16.418Z,19.11
2018-08-30T01:31:21.212Z,19.06
2018-08-30T01:34:26.220Z,18.97
2018-08-30T01:37:30.988Z,19.01
2018-08-30T01:40:35.905Z,18.97
2018-08-30T01:43:40.729Z,19.02
2018-08-30T01:46:45.522Z,18.97
2018-08-30T01:49:50.367Z,18.85
2018-08-30T01:52:55.173Z,18.67
2018-08-30T01:56:00.090Z,18.62
2018-08-30T01:59:04.885Z,18.54
2018-08-30T02:02:09.680Z,18.61
2018-08-30T02:05:14.500Z,18.60
2018-08-30T02:08:19.263Z,18.51
2018-08-30T02:11:24.026Z,18.46
2018-08-30T02:14:28.985Z,18.44
2018-08-30T02:17:33.850Z,18.53
2018-08-30T02:20:38.811Z,18.49
2018-08-30T02:23:43.722Z,18.45
2018-08-30T02:26:48.531Z,18.68
2018-08-30T02:29:53.403Z,18.57
2018-08-30T02:32:58.229Z,18.58
2018-08-30T02:36:03.015Z,18.46
2018-08-30T02:39:09.240Z,18.35
2018-08-30T02:42:14.128Z,18.37
2018-08-30T02:45:18.874Z,18.34
2018-08-30T02:48:23.610Z,18.14
2018-08-30T02:51:28.487Z,18.00
2018-08-30T02:54:33.433Z,17.89
2018-08-30T02:57:38.387Z,17.82
2018-08-30T03:00:43.173Z,17.84
2018-08-30T03:03:48.012Z,17.73
2018-08-30T03:06:52.841Z,17.70
2018-08-30T03:09:57.959Z,17.52
2018-08-30T03:13:02.690Z,17.41
2018-08-30T03:16:07.496Z,17.29
2018-08-30T03:19:12.455Z,17.34
2018-08-30T03:22:17.215Z,17.19
2018-08-30T03:25:22.153Z,17.17
2018-08-30T03:28:26.958Z,17.09
2018-08-30T03:31:31.694Z,17.20
2018-08-30T03:34:36.534Z,17.22
2018-08-30T03:37:41.301Z,17.35
2018-08-30T03:40:46.121Z,17.35
2018-08-30T03:43:50.901Z,17.30
2018-08-30T03:46:55.700Z,17.36
2018-08-30T03:50:00.469Z,17.31
2018-08-30T03:53:05.623Z,17.27
2018-08-30T03:56:10.773Z,17.27
2018-08-30T03:59:15.961Z,17.25
2018-08-30T04:02:20.778Z,17.29
2018-08-30T04:05:25.644Z,17.26
2018-08-30T04:08:30.382Z,17.41
2018-08-30T04:11:35.152Z,17.34
2018-08-30T04:14:39.949Z,17.29
2018-08-30T04:17:44.769Z,17.31
2018-08-30T04:20:49.521Z,17.28
2018-08-30T04:23:54.379Z,17.18
2018-08-30T04:26:59.169Z,17.12
2018-08-30T04:30:04.113Z,17.29
2018-08-30T04:33:08.901Z,17.14
2018-08-30T04:36:13.743Z,17.18
2018-08-30T04:39:18.555Z,17.09
2018-08-30T04:42:23.437Z,17.12
2018-08-30T04:45:28.302Z,17.05
2018-08-30T04:48:33.046Z,17.08
2018-08-30T04:51:38.009Z,17.15
2018-08-30T04:54:42.775Z,17.04
2018-08-30T04:57:47.583Z,17.10
2018-08-30T05:00:52.407Z,16.94
2018-08-30T05:03:57.298Z,16.94
2018-08-30T05:07:02.109Z,16.96
2018-08-30T05:10:07.382Z,16.97
2018-08-30T05:13:12.218Z,17.08
2018-08-30T05:16:17.088Z,16.96
2018-08-30T05:19:21.930Z,17.01
2018-08-30T05:22:26.786Z,17.02
2018-08-30T05:25:31.568Z,16.91
2018-08-30T05:28:36.417Z,16.98
2018-08-30T05:31:41.191Z,16.99
2018-08-30T05:34:46.222Z,17.05
2018-08-30T05:37:51.070Z,16.97
2018-08-30T05:40:56.184Z,16.93
2018-08-30T05:44:01.000Z,16.86
2018-08-30T05:47:05.847Z,16.91
2018-08-30T05:50:10.738Z,16.93
2018-08-30T05:53:15.623Z,17.07
2018-08-30T05:56:20.567Z,17.01
2018-08-30T05:59:25.264Z,17.00
2018-08-30T06:02:30.550Z,17.07
2018-08-30T06:05:35.308Z,16.89
2018-08-30T06:08:40.081Z,16.88
2018-08-30T06:11:44.838Z,16.91
2018-08-30T06:14:49.704Z,16.97
2018-08-30T06:17:54.814Z,16.85
2018-08-30T06:20:59.568Z,16.94
2018-08-30T06:24:04.466Z,17.00
2018-08-30T06:27:09.279Z,16.99
2018-08-30T06:30:14.339Z,16.94
2018-08-30T06:33:19.165Z,17.05
2018-08-30T06:36:23.921Z,17.08
2018-08-30T06:39:28.701Z,17.02
2018-08-30T06:42:33.546Z,17.01
2018-08-30T06:45:38.451Z,17.11
2018-08-30T06:48:43.401Z,17.10
2018-08-30T06:51:48.235Z,17.19
2018-08-30T06:54:53.092Z,17.20
2018-08-30T06:57:57.813Z,17.34
2018-08-30T07:01:02.632Z,17.30
2018-08-30T07:04:08.659Z,17.42
2018-08-30T07:07:13.779Z,17.57
2018-08-30T07:10:18.730Z,17.70
2018-08-30T07:13:23.596Z,17.79
2018-08-30T07:16:28.696Z,17.70
2018-08-30T07:19:34.652Z,18.01
2018-08-30T07:22:39.510Z,18.06
2018-08-30T07:25:45.255Z,18.06
2018-08-30T07:28:50.607Z,18.34
2018-08-30T07:31:55.509Z,18.62
2018-08-30T07:35:00.607Z,18.82
2018-08-30T07:38:05.299Z,19.11
2018-08-30T07:41:10.191Z,18.94
2018-08-30T07:44:15.029Z,18.61
2018-08-30T07:47:19.944Z,19.04
2018-08-30T07:50:24.612Z,18.79
2018-08-30T07:53:29.409Z,19.30
2018-08-30T07:56:34.546Z,19.22
2018-08-30T07:59:39.348Z,19.44
2018-08-30T08:02:44.436Z,19.30
2018-08-30T08:05:49.304Z,19.67
2018-08-30T08:08:54.081Z,20.29
2018-08-30T08:11:59.015Z,20.40
2018-08-30T08:15:03.810Z,19.90
2018-08-30T08:18:08.711Z,19.64
2018-08-30T08:21:13.574Z,19.76
2018-08-30T08:24:18.492Z,19.77
2018-08-30T08:27:23.279Z,19.24
2018-08-30T08:30:28.201Z,19.57
2018-08-30T08:33:32.924Z,19.41
2018-08-30T08:36:37.745Z,19.41
2018-08-30T08:39:42.613Z,19.15
2018-08-30T08:42:48.154Z,19.34
2018-08-30T08:45:53.055Z,19.65
2018-08-30T08:48:57.784Z,19.86
2018-08-30T08:52:02.715Z,19.63
2018-08-30T08:55:07.591Z,19.94
2018-08-30T08:58:12.558Z,20.08
2018-08-30T09:01:17.430Z,20.22
2018-08-30T09:04:22.241Z,20.21
2018-08-30T09:07:27.030Z,20.57
2018-08-30T09:10:31.889Z,20.94
2018-08-30T09:13:36.827Z,21.37
2018-08-30T09:16:41.675Z,21.03
2018-08-30T09:19:46.736Z,20.74
2018-08-30T09:22:51.488Z,20.99
2018-08-30T09:25:56.498Z,20.69
2018-08-30T09:29:01.456Z,20.85
2018-08-30T09:32:06.971Z,20.46
2018-08-30T09:35:11.882Z,20.72
2018-08-30T09:38:16.833Z,21.02
2018-08-30T09:41:21.758Z,21.09
2018-08-30T09:44:26.593Z,21.14
2018-08-30T09:47:31.463Z,20.91
2018-08-30T09:50:36.297Z,21.11
2018-08-30T09:53:41.251Z,21.52
2018-08-30T09:56:46.198Z,21.95
2018-08-30T09:59:50.827Z,22.19
2018-08-30T10:02:55.654Z,22.19
2018-08-30T10:06:00.467Z,21.49
2018-08-30T10:09:07.934Z,21.76
2018-08-30T10:12:12.754Z,22.25
2018-08-30T10:15:17.568Z,21.56
2018-08-30T10:18:22.899Z,20.93
2018-08-30T10:21:28.045Z,21.32
2018-08-30T10:24:32.833Z,22.10
2018-08-30T10:27:37.751Z,22.58
2018-08-30T10:30:42.536Z,21.48
2018-08-30T10:33:47.336Z,20.77
2018-08-30T10:36:52.250Z,20.80
2018-08-30T10:39:56.957Z,20.57
2018-08-30T10:43:01.887Z,21.27
2018-08-30T10:46:06.725Z,21.82
2018-08-30T10:49:11.534Z,21.97
2018-08-30T10:52:16.380Z,21.96
2018-08-30T10:55:21.234Z,21.79
2018-08-30T10:58:26.159Z,22.16
2018-08-30T11:01:31.034Z,22.69
2018-08-30T11:04:36.301Z,24.03
2018-08-30T11:07:41.539Z,22.89
2018-08-30T11:10:46.368Z,22.77
2018-08-30T11:13:51.202Z,23.00
2018-08-30T11:16:56.081Z,22.89
2018-08-30T11:20:01.211Z,22.87
2018-08-30T11:23:06.077Z,22.29
2018-08-30T11:26:11.105Z,22.02
2018-08-30T11:29:15.949Z,22.30
2018-08-30T11:32:20.825Z,22.41
2018-08-30T11:35:25.686Z,22.41
2018-08-30T11:38:30.669Z,22.27
2018-08-30T11:41:35.568Z,22.07
2018-08-30T11:44:40.332Z,22.30
2018-08-30T11:47:45.124Z,23.40
2018-08-30T11:50:49.951Z,23.65
2018-08-30T11:53:55.454Z,22.96
2018-08-30T11:57:00.346Z,23.09
2018-08-30T12:00:05.535Z,22.83
2018-08-30T12:03:10.597Z,22.53
2018-08-30T12:06:15.531Z,22.45
2018-08-30T12:09:20.416Z,22.16
2018-08-30T12:12:25.342Z,21.87
2018-08-30T12:15:30.265Z,21.78
2018-08-30T12:18:35.285Z,22.07
2018-08-30T12:21:40.278Z,21.89
2018-08-30T12:24:45.345Z,21.39
2018-08-30T12:27:50.210Z,20.83
2018-08-30T12:30:55.056Z,20.51
2018-08-30T12:34:00.043Z,20.40
2018-08-30T12:37:04.787Z,20.62
2018-08-30T12:40:09.659Z,20.38
2018-08-30T12:43:15.871Z,20.13
2018-08-30T12:46:20.805Z,20.23
2018-08-30T12:49:26.532Z,20.52
2018-08-30T12:52:31.411Z,20.98
2018-08-30T12:55:36.456Z,21.46
2018-08-30T12:58:41.418Z,21.88
2018-08-30T13:01:47.820Z,22.71
2018-08-30T13:04:52.664Z,22.90
2018-08-30T13:07:57.623Z,22.86
2018-08-30T13:11:02.574Z,23.37
2018-08-30T13:14:07.300Z,23.82
2018-08-30T13:17:12.223Z,24.12
2018-08-30T13:20:16.966Z,23.86
2018-08-30T13:23:21.927Z,24.49
2018-08-30T13:26:26.671Z,23.88
2018-08-30T13:29:31.512Z,23.17
2018-08-30T13:32:36.688Z,22.64
2018-08-30T13:35:41.423Z,22.88
2018-08-30T13:38:46.344Z,23.24
2018-08-30T13:41:51.339Z,23.11
2018-08-30T13:44:56.141Z,23.15
2018-08-30T13:48:00.888Z,22.98
2018-08-30T13:51:05.943Z,23.40
2018-08-30T13:54:10.803Z,23.83
2018-08-30T13:57:15.757Z,23.20
2018-08-30T14:00:20.852Z,23.00
2018-08-30T14:03:25.411Z,23.17
2018-08-30T14:06:30.028Z,23.32
2018-08-30T14:09:34.833Z,23.29
2018-08-30T14:12:39.604Z,23.40
2018-08-30T14:15:44.147Z,23.51
2018-08-30T14:18:49.561Z,23.19
2018-08-30T14:21:54.214Z,22.92
2018-08-30T14:24:59.062Z,22.83
2018-08-30T14:28:03.759Z,23.10
2018-08-30T14:31:09.021Z,23.00
2018-08-30T14:34:14.930Z,23.03
2018-08-30T14:37:19.775Z,23.34
2018-08-30T14:40:24.725Z,23.16
2018-08-30T14:43:30.408Z,23.68
2018-08-30T14:46:35.385Z,23.42
2018-08-30T14:49:40.385Z,23.60
2018-08-30T14:52:45.402Z,23.54
2018-08-30T14:55:50.297Z,23.80
2018-08-30T14:58:55.134Z,23.72
2018-08-30T15:02:00.413Z,23.27
2018-08-30T15:05:05.496Z,22.54
2018-08-30T15:08:10.591Z,23.23
2018-08-30T15:11:15.490Z,23.24
2018-08-30T15:14:20.309Z,23.72
2018-08-30T15:17:25.278Z,23.72
2018-08-30T15:20:30.228Z,23.82
2018-08-30T15:23:35.533Z,23.18
2018-08-30T15:26:40.347Z,23.38
2018-08-30T15:29:45.422Z,23.35
2018-08-30T15:32:50.344Z,23.32
2018-08-30T15:35:55.288Z,22.76
2018-08-30T15:39:00.322Z,22.24
2018-08-30T15:42:05.319Z,22.42
2018-08-30T15:45:10.512Z,22.11
2018-08-30T15:48:15.485Z,22.13
2018-08-30T15:51:20.604Z,22.02
2018-08-30T15:54:25.494Z,21.73
2018-08-30T15:57:30.513Z,21.68
2018-08-30T16:00:35.426Z,21.69
2018-08-30T16:03:40.386Z,21.82
2018-08-30T16:06:45.374Z,21.76
2018-08-30T16:09:50.190Z,21.66
2018-08-30T16:12:55.794Z,21.67
2018-08-30T16:16:01.277Z,21.63
2018-08-30T16:19:06.246Z,21.75
2018-08-30T16:22:11.198Z,21.38
2018-08-30T16:25:16.523Z,21.56
2018-08-30T16:28:21.746Z,21.60
2018-08-30T16:31:26.844Z,21.42
2018-08-30T16:34:31.608Z,21.34
2018-08-30T16:37:36.627Z,21.23
2018-08-30T16:40:41.618Z,21.03
2018-08-30T16:43:46.597Z,20.99
2018-08-30T16:46:52.433Z,20.83
2018-08-30T16:50:19.655Z,20.82
2018-08-30T16:53:58.297Z,20.61
2018-08-30T16:57:15.747Z,20.61
2018-08-30T17:00:22.350Z,20.56
2018-08-30T17:03:28.620Z,20.34
2018-08-30T17:06:33.679Z,20.33
2018-08-30T17:09:46.193Z,20.34
2018-08-30T17:12:51.175Z,20.36
2018-08-30T17:15:56.120Z,20.18
2018-08-30T17:19:25.894Z,20.14
2018-08-30T17:22:30.966Z,19.84
2018-08-30T17:25:35.896Z,19.69
2018-08-30T17:28:40.915Z,19.64
2018-08-30T17:31:45.841Z,19.35
2018-08-30T17:34:50.723Z,19.25
2018-08-30T17:37:55.856Z,19.13
2018-08-30T17:41:00.874Z,19.03
2018-08-30T17:44:06.698Z,18.95
2018-08-30T17:47:12.128Z,18.80
2018-08-30T17:50:17.611Z,18.62
2018-08-30T17:53:22.632Z,18.45
2018-08-30T17:56:28.127Z,18.33
2018-08-30T17:59:33.128Z,18.14
2018-08-30T18:02:38.117Z,18.03
2018-08-30T18:05:43.036Z,17.86
2018-08-30T18:08:47.966Z,17.94
2018-08-30T18:11:53.097Z,17.87
2018-08-30T18:14:58.086Z,17.89
2018-08-30T18:18:03.139Z,18.07
2018-08-30T18:21:08.050Z,18.10
2018-08-30T18:24:13.076Z,18.29
2018-08-30T18:27:18.083Z,18.28
2018-08-30T18:30:23.116Z,18.21
2018-08-30T18:33:28.149Z,18.09
2018-08-30T18:36:33.343Z,18.06
2018-08-30T18:39:38.326Z,17.98
2018-08-30T18:42:43.981Z,17.86
2018-08-30T18:45:49.456Z,17.90
2018-08-30T18:48:54.533Z,17.60
2018-08-30T18:51:59.483Z,17.37
2018-08-30T18:55:05.056Z,17.15
2018-08-30T18:58:10.063Z,17.06
2018-08-30T19:01:15.219Z,17.06
2018-08-30T19:04:20.236Z,16.72
2018-08-30T19:07:25.175Z,16.68
2018-08-30T19:10:30.217Z,16.36
2018-08-30T19:13:35.252Z,16.19
2018-08-30T19:16:45.302Z,16.25
2018-08-30T19:19:50.189Z,16.02
2018-08-30T19:22:55.247Z,15.76
2018-08-30T19:26:00.214Z,15.82
2018-08-30T19:29:05.183Z,15.60
2018-08-30T19:32:10.146Z,15.44
2018-08-30T19:35:20.022Z,15.30
2018-08-30T19:38:25.330Z,15.35
2018-08-30T19:41:30.417Z,15.41
2018-08-30T19:44:35.366Z,15.23
2018-08-30T19:47:40.370Z,15.10
2018-08-30T19:50:45.305Z,15.03
2018-08-30T19:53:50.672Z,14.91
2018-08-30T19:56:55.784Z,14.96
2018-08-30T20:00:00.937Z,14.95
2018-08-30T20:03:06.234Z,15.06
2018-08-30T20:06:11.125Z,15.10
2018-08-30T20:09:16.326Z,15.22
2018-08-30T20:12:21.298Z,15.35
2018-08-30T20:15:26.245Z,15.34
2018-08-30T20:18:31.265Z,15.37
2018-08-30T20:21:36.088Z,15.40
2018-08-30T20:24:41.309Z,15.34
2018-08-30T20:27:46.203Z,15.34
2018-08-30T20:30:51.143Z,15.29
2018-08-30T20:33:56.168Z,15.29
2018-08-30T20:37:01.293Z,15.30
2018-08-30T20:40:06.242Z,15.22
2018-08-30T20:43:11.343Z,15.26
2018-08-30T20:46:16.460Z,15.28
2018-08-30T20:49:21.588Z,15.22
2018-08-30T20:52:26.784Z,15.28
2018-08-30T20:55:31.735Z,15.37
2018-08-30T20:58:36.876Z,15.26
2018-08-30T21:01:41.812Z,15.31
2018-08-30T21:04:46.806Z,15.33
2018-08-30T21:07:52.780Z,15.43
2018-08-30T21:10:57.779Z,15.41
2018-08-30T21:14:03.809Z,15.36
2018-08-30T21:17:08.757Z,15.44
2018-08-30T21:20:13.659Z,15.50
2018-08-30T21:23:19.980Z,15.54
2018-08-30T21:26:24.942Z,15.56
2018-08-30T21:29:30.027Z,15.44
2018-08-30T21:32:35.013Z,15.27
2018-08-30T21:35:40.028Z,15.25
2018-08-30T21:38:45.305Z,15.13
2018-08-30T21:41:50.284Z,14.92
2018-08-30T21:44:55.208Z,14.78
2018-08-30T21:48:00.159Z,14.90
2018-08-30T21:51:05.132Z,14.71
2018-08-30T21:54:10.066Z,14.61
2018-08-30T21:57:14.988Z,14.58
2018-08-30T22:00:19.976Z,14.72
2018-08-30T22:03:24.922Z,14.76
2018-08-30T22:06:29.849Z,14.85
2018-08-30T22:09:35.005Z,14.91
2018-08-30T22:12:39.937Z,14.97
2018-08-30T22:15:44.940Z,15.03
2018-08-30T22:18:49.922Z,15.03
2018-08-30T22:21:54.883Z,14.98
2018-08-30T22:24:59.843Z,15.07
2018-08-30T22:28:05.100Z,15.01
2018-08-30T22:31:10.038Z,14.95
2018-08-30T22:34:15.262Z,15.04
2018-08-30T22:37:20.292Z,14.99
2018-08-30T22:40:25.319Z,14.96
2018-08-30T22:43:30.306Z,15.10
2018-08-30T22:46:35.251Z,15.12
2018-08-30T22:49:40.134Z,15.04
2018-08-30T22:52:45.126Z,14.88
2018-08-30T22:55:50.013Z,14.76
2018-08-30T22:58:55.062Z,14.63
2018-08-30T23:02:00.052Z,14.59
2018-08-30T23:05:05.103Z,14.47
2018-08-30T23:08:10.020Z,14.29
2018-08-30T23:11:14.950Z,14.16
2018-08-30T23:14:19.944Z,14.03
2018-08-30T23:17:25.010Z,14.00
2018-08-30T23:20:29.875Z,14.01
2018-08-30T23:23:34.791Z,14.02
2018-08-30T23:26:39.776Z,14.10
2018-08-30T23:29:44.722Z,14.32
2018-08-30T23:32:49.700Z,14.23
2018-08-30T23:35:54.586Z,14.21
2018-08-30T23:38:59.637Z,14.25
2018-08-30T23:42:04.626Z,14.24
2018-08-30T23:45:09.659Z,14.34
2018-08-30T23:48:14.606Z,14.44
2018-08-30T23:51:19.611Z,14.28
2018-08-30T23:54:24.589Z,14.23
2018-08-30T23:57:29.453Z,14.14
